Time;durP1;ratioP1;P1;durP2;ratioP2;P2;SDS_P1;SDS_P2;PMS_P1;PMS_P2;Temp;Humidity;BMP_temperature;BMP_pressure;BME280_temperature;BME280_humidity;BME280_pressure;Samples;Min_cycle;Max_cycle;Signal;HPM_P1;HPM_P2
2021/07/27 00:01:13;;;;;;;6.10;5.60;;;;;;;14.76;100.00;97875.41;5046432;28;20203;-65
2021/07/27 00:03:41;;;;;;;7.40;4.63;;;;;;;14.70;100.00;97876.16;5048889;28;20330;-65
2021/07/27 00:06:11;;;;;;;5.53;5.03;;;;;;;14.65;100.00;97872.41;5049823;28;20311;-65
2021/07/27 00:08:39;;;;;;;5.87;5.37;;;;;;;14.60;100.00;97876.47;5057485;28;20352;-66
2021/07/27 00:11:09;;;;;;;6.37;5.87;;;;;;;14.62;100.00;97873.63;5051155;28;20303;-66
2021/07/27 00:13:38;;;;;;;6.13;5.63;;;;;;;14.65;100.00;97875.06;5054920;28;20207;-66
2021/07/27 00:16:06;;;;;;;6.80;6.10;;;;;;;14.61;100.00;97879.97;5055447;28;20629;-66
2021/07/27 00:18:35;;;;;;;6.43;5.83;;;;;;;14.62;100.00;97879.75;5058920;28;20207;-67
2021/07/27 00:21:04;;;;;;;8.00;7.30;;;;;;;14.65;100.00;97885.72;5051263;28;20215;-67
2021/07/27 00:23:33;;;;;;;7.90;6.40;;;;;;;14.66;100.00;97884.72;5057371;28;20222;-65
2021/07/27 00:26:02;;;;;;;11.30;6.77;;;;;;;14.71;100.00;97892.97;5052298;28;20322;-66
2021/07/27 00:28:30;;;;;;;7.47;6.80;;;;;;;14.71;100.00;97893.81;5053105;28;20352;-67
2021/07/27 00:30:58;;;;;;;9.57;6.77;;;;;;;14.70;100.00;97885.97;5056061;28;20195;-66
2021/07/27 00:33:26;;;;;;;5.67;5.17;;;;;;;14.63;100.00;97885.94;5053928;28;20235;-66
2021/07/27 00:35:55;;;;;;;6.77;6.17;;;;;;;14.56;100.00;97885.03;5054108;28;20234;-66
2021/07/27 00:38:23;;;;;;;6.67;6.17;;;;;;;14.51;100.00;97887.47;5049442;28;20234;-65
2021/07/27 00:40:51;;;;;;;6.33;5.73;;;;;;;14.49;100.00;97890.34;5055732;28;20214;-66
2021/07/27 00:43:20;;;;;;;6.20;5.70;;;;;;;14.47;100.00;97897.69;5050722;28;20207;-66
2021/07/27 00:45:48;;;;;;;6.07;5.53;;;;;;;14.40;100.00;97892.28;5055682;28;20421;-66
2021/07/27 00:48:16;;;;;;;7.37;6.67;;;;;;;14.50;100.00;97894.66;5057411;28;20512;-65
2021/07/27 00:50:44;;;;;;;7.00;6.50;;;;;;;14.47;100.00;97895.84;5060010;28;20210;-66
2021/07/27 00:53:15;;;;;;;7.43;6.73;;;;;;;14.56;100.00;97901.03;5057526;28;20219;-65
2021/07/27 00:55:43;;;;;;;9.77;6.47;;;;;;;14.55;100.00;97892.22;5056361;28;20222;-65
2021/07/27 00:58:11;;;;;;;7.27;6.57;;;;;;;14.47;100.00;97903.03;5057210;28;20254;-66
2021/07/27 01:00:39;;;;;;;6.57;6.07;;;;;;;14.40;100.00;97897.63;5059143;28;20222;-65
2021/07/27 01:03:07;;;;;;;7.07;6.37;;;;;;;14.40;100.00;97889.63;5056824;28;20651;-64
2021/07/27 01:05:35;;;;;;;7.23;6.60;;;;;;;14.43;100.00;97891.91;5056267;28;20707;-66
2021/07/27 01:08:05;;;;;;;6.63;6.03;;;;;;;14.48;100.00;97905.50;5058857;28;20206;-66
2021/07/27 01:10:35;;;;;;;8.90;6.23;;;;;;;14.39;100.00;97898.66;5055435;28;20196;-65
2021/07/27 01:13:04;;;;;;;7.17;6.63;;;;;;;14.48;100.00;97897.50;5058225;28;20203;-65
2021/07/27 01:15:32;;;;;;;6.40;5.93;;;;;;;14.42;100.00;97898.25;5056281;28;20203;-65
2021/07/27 01:18:04;;;;;;;8.33;6.73;;;;;;;14.35;100.00;97893.88;5057229;28;20223;-66
2021/07/27 01:20:46;;;;;;;6.83;6.30;;;;;;;14.38;100.00;97894.31;5061898;28;20660;-65
2021/07/27 01:39:50;;;;;;;8.33;6.30;;;;;;;14.05;100.00;97878.84;5060740;28;20550;-65
2021/07/27 01:42:18;;;;;;;6.60;6.03;;;;;;;14.05;100.00;97884.16;5057706;28;20214;-65
2021/07/27 01:44:47;;;;;;;7.43;6.60;;;;;;;14.01;100.00;97888.22;5061759;28;20282;-67
2021/07/27 01:47:15;;;;;;;6.67;6.17;;;;;;;14.01;100.00;97893.53;5058608;28;20789;-66
2021/07/27 01:49:44;;;;;;;6.13;5.70;;;;;;;14.00;100.00;97894.56;5061302;28;20199;-66
2021/07/27 01:52:14;;;;;;;6.70;6.20;;;;;;;14.04;100.00;97890.50;5059458;28;20213;-65
2021/07/27 01:54:56;;;;;;;6.43;5.90;;;;;;;14.02;100.00;97895.19;5054825;28;20198;-65
2021/07/27 01:57:27;;;;;;;8.57;6.03;;;;;;;13.97;100.00;97886.94;5055218;28;20242;-68
2021/07/27 02:00:09;;;;;;;6.30;5.70;;;;;;;13.98;100.00;97892.06;5056041;28;20214;-66
2021/07/27 02:02:37;;;;;;;6.40;5.80;;;;;;;13.94;100.00;97888.13;5060109;28;20222;-66
2021/07/27 02:05:09;;;;;;;9.27;5.57;;;;;;;13.98;100.00;97891.25;5059955;28;20956;-66
2021/07/27 02:07:38;;;;;;;6.93;6.30;;;;;;;13.98;100.00;97896.59;5047019;28;20227;-66
2021/07/27 02:10:12;;;;;;;6.63;6.07;;;;;;;13.92;100.00;97894.69;5061281;28;20199;-67
2021/07/27 02:12:50;;;;;;;6.67;6.00;;;;;;;13.85;100.00;97890.13;5057247;28;20631;-65
2021/07/27 02:15:20;;;;;;;7.37;6.50;;;;;;;13.87;100.00;97889.91;5056825;28;20206;-65
2021/07/27 02:17:48;;;;;;;6.43;5.93;;;;;;;13.86;100.00;97891.75;5057194;28;20234;-67
2021/07/27 02:20:16;;;;;;;6.43;5.83;;;;;;;13.85;100.00;97883.94;5057701;28;20203;-66
2021/07/27 02:22:44;;;;;;;6.90;6.20;;;;;;;13.84;100.00;97891.13;5055862;28;20203;-66
2021/07/27 02:25:14;;;;;;;8.37;6.80;;;;;;;13.82;100.00;97887.00;5060687;28;20652;-66
2021/07/27 02:27:42;;;;;;;7.63;6.53;;;;;;;13.85;100.00;97883.94;5058372;28;20198;-66
2021/07/27 02:30:11;;;;;;;7.03;6.47;;;;;;;13.78;100.00;97883.06;5060466;28;20206;-67
2021/07/27 02:32:39;;;;;;;6.83;6.10;;;;;;;13.85;100.00;97883.94;5058023;28;20199;-67
2021/07/27 02:35:09;;;;;;;6.30;5.90;;;;;;;13.81;100.00;97888.00;5058251;28;20612;-66
2021/07/27 02:37:37;;;;;;;6.70;6.20;;;;;;;13.74;100.00;97890.56;5058328;28;20285;-66
2021/07/27 02:40:06;;;;;;;6.50;5.90;;;;;;;13.74;100.00;97890.56;5057766;28;20203;-69
2021/07/27 02:42:36;;;;;;;7.83;6.87;;;;;;;13.74;100.00;97887.91;5056320;28;20730;-68
2021/07/27 02:45:05;;;;;;;6.73;6.13;;;;;;;13.71;100.00;97894.47;5054752;28;20214;-66
2021/07/27 02:47:34;;;;;;;7.30;6.37;;;;;;;13.74;100.00;97879.94;5050727;28;20524;-67
2021/07/27 02:50:02;;;;;;;11.93;6.37;;;;;;;13.62;100.00;97882.25;5053034;28;20286;-67
2021/07/27 02:52:33;;;;;;;5.53;5.13;;;;;;;13.60;100.00;97882.44;5056461;28;20207;-66
2021/07/27 02:55:01;;;;;;;6.57;5.97;;;;;;;13.62;100.00;97887.56;5050507;28;20318;-67
2021/07/27 02:57:29;;;;;;;7.40;6.67;;;;;;;13.65;100.00;97887.22;5054442;28;20235;-68
2021/07/27 03:00:00;;;;;;;7.63;6.90;;;;;;;13.75;100.00;97886.91;5056322;28;20208;-68
2021/07/27 03:02:31;;;;;;;6.60;6.10;;;;;;;13.73;100.00;97891.59;5056629;28;20202;-67
2021/07/27 03:04:59;;;;;;;6.23;5.83;;;;;;;13.68;100.00;97884.19;5058322;28;20207;-66
2021/07/27 03:07:34;;;;;;;6.63;6.03;;;;;;;13.59;100.00;97891.44;5059140;28;20653;-67
2021/07/27 03:10:20;;;;;;;7.80;5.90;;;;;;;13.55;100.00;97892.00;5058325;28;20229;-66
2021/07/27 03:12:51;;;;;;;6.80;6.20;;;;;;;13.67;100.00;97897.66;5054635;28;20298;-67
2021/07/27 03:15:22;;;;;;;6.97;6.47;;;;;;;13.67;100.00;97898.50;5059961;28;20235;-67
2021/07/27 03:17:53;;;;;;;8.53;5.97;;;;;;;13.54;100.00;97901.81;5056772;28;20202;-67
2021/07/27 03:20:21;;;;;;;7.27;6.57;;;;;;;13.54;100.00;97900.97;5058666;28;20213;-66
2021/07/27 03:22:50;;;;;;;6.37;5.77;;;;;;;13.56;100.00;97902.47;5055084;28;20207;-67
2021/07/27 03:25:19;;;;;;;7.03;6.00;;;;;;;13.43;100.00;97896.94;5055010;28;20206;-67
2021/07/27 03:27:47;;;;;;;7.97;6.53;;;;;;;13.41;100.00;97893.63;5053426;28;20534;-66
2021/07/27 03:30:16;;;;;;;7.07;6.37;;;;;;;13.34;100.00;97898.88;5058921;28;20204;-65
2021/07/27 03:32:46;;;;;;;7.07;6.47;;;;;;;13.32;100.00;97890.25;5054821;28;21149;-67
2021/07/27 03:35:15;;;;;;;7.63;7.00;;;;;;;13.30;100.00;97887.75;5060076;28;21005;-67
2021/07/27 03:37:43;;;;;;;7.13;6.43;;;;;;;13.42;100.00;97909.44;5056979;28;20517;-67
2021/07/27 03:40:12;;;;;;;7.70;7.10;;;;;;;13.37;100.00;97897.66;5056366;28;20222;-67
2021/07/27 03:42:40;;;;;;;6.87;6.37;;;;;;;13.38;100.00;97904.63;5058717;28;20204;-67
2021/07/27 03:45:09;;;;;;;6.80;6.33;;;;;;;13.32;100.00;97896.38;5056812;28;20234;-68
2021/07/27 03:47:37;;;;;;;7.53;6.83;;;;;;;13.29;100.00;97898.59;5058942;28;20245;-67
2021/07/27 03:50:07;;;;;;;9.50;6.93;;;;;;;13.33;100.00;97902.53;5059594;28;20210;-68
2021/07/27 03:52:35;;;;;;;7.67;7.00;;;;;;;13.32;100.00;97901.69;5054858;28;20264;-68
2021/07/27 03:55:03;;;;;;;9.27;7.27;;;;;;;13.31;100.00;97905.38;5055558;28;20204;-67
2021/07/27 03:57:31;;;;;;;9.60;6.67;;;;;;;13.34;100.00;97900.69;5056567;28;20710;-66
2021/07/27 03:59:59;;;;;;;7.03;6.43;;;;;;;13.33;100.00;97905.19;5052501;28;20799;-66
2021/07/27 04:02:27;;;;;;;7.33;6.73;;;;;;;13.40;100.00;97905.28;5054559;28;20214;-67
2021/07/27 04:04:55;;;;;;;7.77;7.07;;;;;;;13.38;100.00;97904.63;5056372;28;20203;-68
2021/07/27 04:07:24;;;;;;;8.57;6.83;;;;;;;13.41;100.00;97910.44;5057015;28;20526;-67
2021/07/27 04:09:53;;;;;;;7.70;7.00;;;;;;;13.34;100.00;97906.00;5053918;28;20260;-67
2021/07/27 04:12:21;;;;;;;7.97;7.17;;;;;;;13.41;100.00;97910.44;5056101;28;20195;-65
2021/07/27 04:14:49;;;;;;;6.93;6.37;;;;;;;13.46;100.00;97916.06;5052781;28;20213;-66
2021/07/27 04:17:18;;;;;;;8.20;7.17;;;;;;;13.47;100.00;97914.22;5057495;28;20631;-66
2021/07/27 04:19:46;;;;;;;7.50;6.87;;;;;;;13.43;100.00;97920.91;5050132;28;20583;-66
2021/07/27 04:22:14;;;;;;;7.80;7.10;;;;;;;13.52;100.00;97924.31;5058960;28;20207;-67
2021/07/27 04:24:43;;;;;;;7.23;6.63;;;;;;;13.49;100.00;97917.53;5056949;28;20214;-65
2021/07/27 04:27:11;;;;;;;9.67;7.03;;;;;;;13.64;100.00;97916.69;5060982;28;20223;-68
2021/07/27 04:29:39;;;;;;;11.57;7.20;;;;;;;13.58;100.00;97916.41;5060735;28;20199;-68
2021/07/27 04:32:07;;;;;;;7.40;6.53;;;;;;;13.62;100.00;97916.84;5059281;28;20203;-70
2021/07/27 04:34:35;;;;;;;8.77;7.90;;;;;;;13.68;100.00;97916.13;5062269;28;20975;-72
2021/07/27 04:37:04;;;;;;;8.07;6.90;;;;;;;13.77;100.00;97918.69;5058184;28;20313;-73
2021/07/27 04:39:32;;;;;;;7.67;6.97;;;;;;;13.70;100.00;97914.09;5062418;28;20866;-72
2021/07/27 04:42:01;;;;;;;6.83;6.17;;;;;;;13.72;100.00;97912.09;5058379;28;20726;-72
2021/07/27 04:44:29;;;;;;;7.30;6.53;;;;;;;13.78;100.00;97913.16;5062038;28;20675;-72
2021/07/27 04:46:57;;;;;;;7.77;7.13;;;;;;;13.82;100.00;97914.44;5061698;28;20242;-73
2021/07/27 04:49:25;;;;;;;8.23;6.87;;;;;;;13.93;100.00;97907.81;5064036;28;20230;-72
2021/07/27 04:51:53;;;;;;;8.83;7.00;;;;;;;13.97;100.00;97909.06;5058078;28;20215;-74
2021/07/27 04:54:28;;;;;;;8.47;7.53;;;;;;;14.02;100.00;97913.84;5056075;28;20199;-70
2021/07/27 04:57:02;;;;;;;9.50;7.57;;;;;;;14.09;100.00;97914.75;5058070;28;20226;-72
2021/07/27 04:59:32;;;;;;;7.90;7.10;;;;;;;14.31;100.00;97915.59;5062974;28;20231;-75
2021/07/27 05:02:00;;;;;;;8.40;7.70;;;;;;;14.39;100.00;97911.13;5060529;28;20207;-72
2021/07/27 05:04:29;;;;;;;9.47;7.80;;;;;;;14.70;100.00;97915.31;5057769;28;20236;-72
2021/07/27 05:06:58;;;;;;;8.30;7.27;;;;;;;14.88;100.00;97910.38;5058061;28;20452;-71
2021/07/27 05:09:27;;;;;;;8.33;7.57;;;;;;;14.91;100.00;97909.13;5057457;28;20196;-71
2021/07/27 05:11:56;;;;;;;9.07;7.60;;;;;;;15.10;100.00;97904.97;5060492;28;20202;-71
2021/07/27 05:14:26;;;;;;;8.70;7.63;;;;;;;15.17;100.00;97902.34;5059360;28;20251;-72
2021/07/27 05:16:54;;;;;;;9.57;6.97;;;;;;;15.17;100.00;97905.00;5053842;28;20694;-70
2021/07/27 05:19:23;;;;;;;7.97;7.20;;;;;;;15.31;100.00;97906.72;5060470;28;20307;-71
2021/07/27 05:21:54;;;;;;;8.47;6.97;;;;;;;15.32;100.00;97919.06;5057884;28;20205;-71
2021/07/27 05:24:22;;;;;;;8.30;7.40;;;;;;;15.34;100.00;97914.38;5056973;28;20953;-70
2021/07/27 05:26:50;;;;;;;7.73;7.03;;;;;;;15.42;100.00;97905.34;5054710;28;20230;-70
2021/07/27 05:29:19;;;;;;;11.80;7.77;;;;;;;15.55;100.00;97909.13;5054935;28;20575;-71
2021/07/27 05:31:49;;;;;;;8.43;7.70;;;;;;;15.59;100.00;97910.38;5062767;28;20199;-72
2021/07/27 05:34:17;;;;;;;8.37;7.63;;;;;;;15.69;100.00;97913.50;5061240;28;20563;-71
2021/07/27 05:36:45;;;;;;;7.07;6.57;;;;;;;15.67;100.00;97909.38;5062406;28;20257;-71
2021/07/27 05:39:14;;;;;;;11.40;7.40;;;;;;;15.85;100.00;97909.66;5059335;28;20210;-70
2021/07/27 05:41:42;;;;;;;7.70;7.00;;;;;;;15.96;100.00;97902.13;5063501;28;20210;-69
2021/07/27 05:44:10;;;;;;;7.00;6.30;;;;;;;15.97;100.00;97899.25;5060051;28;20450;-71
2021/07/27 05:46:38;;;;;;;7.03;6.43;;;;;;;16.12;100.00;97899.09;5059590;28;20985;-71
2021/07/27 05:49:10;;;;;;;8.33;7.27;;;;;;;16.08;100.00;97907.72;5057415;28;20294;-69
2021/07/27 05:51:39;;;;;;;8.07;7.17;;;;;;;16.22;100.00;97898.69;5064916;28;20214;-70
2021/07/27 05:54:08;;;;;;;8.17;7.40;;;;;;;16.32;100.00;97896.47;5059332;28;20754;-71
2021/07/27 05:56:36;;;;;;;9.03;7.10;;;;;;;16.38;100.00;97894.00;5061851;28;20222;-71
2021/07/27 05:59:04;;;;;;;7.83;7.03;;;;;;;16.51;100.00;97898.53;5062712;28;21899;-71
2021/07/27 06:01:32;;;;;;;7.00;6.30;;;;;;;16.54;100.00;97901.59;5060038;28;20234;-71
2021/07/27 06:04:00;;;;;;;8.30;6.40;;;;;;;16.58;100.00;97894.81;5057912;28;20213;-72
2021/07/27 06:06:32;;;;;;;7.90;7.30;;;;;;;16.64;100.00;97907.38;5057500;28;20331;-72
2021/07/27 06:09:01;;;;;;;9.90;6.90;;;;;;;16.72;100.00;97900.19;5056729;28;20207;-71
2021/07/27 06:11:29;;;;;;;8.33;7.37;;;;;;;16.89;100.00;97892.56;5058551;28;20215;-71
2021/07/27 06:13:57;;;;;;;7.07;6.47;;;;;;;17.01;100.00;97901.63;5060091;28;20207;-72
2021/07/27 06:16:25;;;;;;;7.83;7.13;;;;;;;17.25;100.00;97899.34;5059964;28;20239;-72
2021/07/27 06:18:53;;;;;;;6.97;6.37;;;;;;;17.44;100.00;97908.34;5060859;28;20256;-72
2021/07/27 06:21:21;;;;;;;8.23;7.43;;;;;;;17.54;100.00;97901.72;5056620;28;20227;-71
2021/07/27 06:23:50;;;;;;;9.67;6.87;;;;;;;17.68;100.00;97907.88;5053240;28;20202;-72
2021/07/27 06:26:18;;;;;;;7.33;6.70;;;;;;;17.57;100.00;97904.78;5056827;28;20223;-71
2021/07/27 06:28:46;;;;;;;8.60;6.60;;;;;;;17.67;100.00;97907.03;5058347;28;20199;-71
2021/07/27 06:31:14;;;;;;;9.70;7.23;;;;;;;17.59;100.00;97905.41;5056057;28;20206;-71
2021/07/27 06:33:43;;;;;;;7.83;7.00;;;;;;;17.51;100.00;97916.34;5062732;28;20815;-71
2021/07/27 06:36:11;;;;;;;7.67;7.07;;;;;;;17.67;100.00;97904.34;5055433;28;20556;-72
2021/07/27 06:38:39;;;;;;;7.40;6.60;;;;;;;17.78;100.00;97918.94;5057100;28;20202;-72
2021/07/27 06:41:09;;;;;;;9.53;7.23;;;;;;;18.03;100.00;97921.75;5057673;28;20226;-70
2021/07/27 06:43:38;;;;;;;7.13;6.47;;;;;;;18.27;100.00;97919.34;5060550;28;20721;-72
2021/07/27 06:46:07;;;;;;;7.90;7.07;;;;;;;18.23;100.00;97918.94;5053031;28;20227;-71
2021/07/27 06:48:35;;;;;;;8.60;7.03;;;;;;;18.25;100.00;97923.28;5056185;28;20218;-72
2021/07/27 06:51:10;;;;;;;8.13;6.67;;;;;;;18.24;100.00;97917.09;5055784;28;20206;-73
2021/07/27 06:53:39;;;;;;;9.67;7.43;;;;;;;18.40;100.00;97914.94;5057578;28;20229;-72
2021/07/27 06:56:08;;;;;;;7.80;6.63;;;;;;;18.46;100.00;97914.06;5059567;28;20654;-72
2021/07/27 06:58:37;;;;;;;11.70;6.73;;;;;;;18.49;100.00;97916.31;5061160;28;20215;-71
2021/07/27 07:01:07;;;;;;;8.60;7.70;;;;;;;18.49;100.00;97925.19;5055828;28;20207;-71
2021/07/27 07:03:35;;;;;;;7.43;6.83;;;;;;;18.71;100.00;97926.69;5055692;28;20509;-72
2021/07/27 07:06:03;;;;;;;9.30;6.40;;;;;;;18.87;100.00;97925.31;5057886;28;20299;-71
2021/07/27 07:08:31;;;;;;;6.53;5.93;;;;;;;19.02;100.00;97919.66;5054714;28;20214;-73
2021/07/27 07:11:00;;;;;;;6.63;6.13;;;;;;;19.05;100.00;97929.97;5057534;28;20214;-71
2021/07/27 07:13:29;;;;;;;6.87;6.27;;;;;;;19.22;100.00;97920.28;5053485;28;20207;-71
2021/07/27 07:15:58;;;;;;;6.83;6.00;;;;;;;19.30;100.00;97927.22;5057161;28;20227;-72
2021/07/27 07:18:26;;;;;;;6.03;5.50;;;;;;;19.51;97.03;97927.84;5054721;28;20253;-72
2021/07/27 07:20:54;;;;;;;6.60;6.07;;;;;;;19.55;96.99;97934.44;5056782;28;20234;-71
2021/07/27 07:23:22;;;;;;;6.50;5.90;;;;;;;19.63;97.76;97933.28;5055721;28;20207;-72
2021/07/27 07:25:51;;;;;;;6.13;5.63;;;;;;;19.80;96.65;97936.19;5054130;28;20270;-72
2021/07/27 07:28:20;;;;;;;6.20;5.70;;;;;;;19.69;95.29;97935.06;5053831;28;20213;-71
2021/07/27 07:30:50;;;;;;;5.73;5.33;;;;;;;19.85;94.84;97933.63;5053627;28;20206;-72
2021/07/27 07:33:18;;;;;;;6.17;5.50;;;;;;;20.01;92.79;97928.75;5061388;28;20290;-72
2021/07/27 07:35:46;;;;;;;6.50;5.73;;;;;;;20.10;92.81;97936.28;5058122;28;20234;-72
2021/07/27 07:38:14;;;;;;;7.03;5.33;;;;;;;20.20;91.84;97935.72;5058890;28;20625;-72
2021/07/27 07:40:42;;;;;;;5.73;5.23;;;;;;;20.21;89.77;97937.34;5052977;28;20227;-72
2021/07/27 07:43:10;;;;;;;6.07;5.63;;;;;;;20.15;88.85;97940.94;5058025;28;20259;-71
2021/07/27 07:45:38;;;;;;;5.80;5.30;;;;;;;20.38;88.37;97936.72;5055291;28;20198;-72
2021/07/27 07:48:08;;;;;;;6.17;5.57;;;;;;;20.62;88.39;97934.91;5056608;28;20480;-71
2021/07/27 07:50:36;;;;;;;6.90;5.70;;;;;;;20.82;88.25;97925.72;5055340;28;20231;-72
2021/07/27 07:53:04;;;;;;;5.50;5.03;;;;;;;21.17;85.77;97938.38;5058993;28;20214;-72
2021/07/27 07:55:32;;;;;;;6.43;5.77;;;;;;;20.97;85.14;97938.72;5051724;28;20215;-70
2021/07/27 07:58:01;;;;;;;5.93;5.07;;;;;;;21.32;84.35;97943.31;5055063;28;20915;-73
2021/07/27 08:00:29;;;;;;;6.40;5.90;;;;;;;21.40;80.63;97942.97;5055468;28;20209;-71
2021/07/27 08:02:57;;;;;;;6.73;6.03;;;;;;;21.32;80.19;97935.22;5057818;28;20206;-72
2021/07/27 08:05:26;;;;;;;5.20;4.90;;;;;;;21.51;79.71;97937.78;5055916;28;20222;-71
2021/07/27 08:07:54;;;;;;;5.13;4.73;;;;;;;21.75;79.87;97943.16;5053367;28;20598;-73
2021/07/27 08:10:22;;;;;;;7.00;5.17;;;;;;;22.17;76.60;97936.72;5052964;28;20211;-71
2021/07/27 08:12:50;;;;;;;5.70;5.30;;;;;;;22.04;76.24;97943.19;5052321;28;20218;-72
2021/07/27 08:15:24;;;;;;;4.97;4.67;;;;;;;22.16;76.37;97935.06;5051733;28;20236;-72
2021/07/27 08:17:52;;;;;;;5.63;5.20;;;;;;;22.35;75.47;97935.69;5054249;28;20203;-71
2021/07/27 08:20:21;;;;;;;5.77;5.37;;;;;;;22.45;74.13;97935.88;5055663;28;20599;-71
2021/07/27 08:22:52;;;;;;;6.20;5.23;;;;;;;22.61;73.53;97941.59;5059686;28;20229;-72
2021/07/27 08:25:22;;;;;;;5.83;5.23;;;;;;;22.77;72.70;97932.66;5052464;28;20199;-71
2021/07/27 08:27:50;;;;;;;5.63;5.23;;;;;;;22.50;70.80;97930.56;5053303;28;20207;-72
2021/07/27 08:30:19;;;;;;;5.53;5.10;;;;;;;22.72;69.94;97942.53;5059373;28;20207;-72
2021/07/27 08:32:47;;;;;;;5.67;5.07;;;;;;;22.56;71.83;97936.91;5055463;28;20199;-72
2021/07/27 08:35:16;;;;;;;6.50;5.10;;;;;;;22.32;73.40;97931.56;5054860;28;20199;-71
2021/07/27 08:37:44;;;;;;;5.50;5.07;;;;;;;22.68;72.71;97936.84;5054791;28;20285;-72
2021/07/27 08:40:16;;;;;;;5.40;5.00;;;;;;;23.01;70.52;97939.78;5055067;28;20206;-71
2021/07/27 08:42:46;;;;;;;4.97;4.67;;;;;;;23.43;67.99;97928.53;5061513;28;20428;-72
2021/07/27 08:45:14;;;;;;;4.77;4.47;;;;;;;23.47;66.58;97931.56;5058541;28;20219;-70
2021/07/27 08:47:46;;;;;;;6.27;5.00;;;;;;;23.33;65.11;97937.34;5054705;28;20227;-72
2021/07/27 08:50:15;;;;;;;5.70;5.20;;;;;;;22.66;68.88;97933.56;5059773;28;20204;-71
2021/07/27 08:52:42;;;;;;;6.47;5.00;;;;;;;22.82;68.28;97935.44;5056129;28;20206;-70
2021/07/27 08:55:11;;;;;;;4.93;4.57;;;;;;;22.52;70.27;97928.44;5059674;28;20240;-71
2021/07/27 08:57:54;;;;;;;5.03;4.53;;;;;;;22.22;71.29;97936.78;5061000;28;20234;-71
2021/07/27 09:00:22;;;;;;;5.57;4.63;;;;;;;22.45;70.30;97937.75;5053471;28;20218;-71
2021/07/27 09:02:50;;;;;;;7.17;4.60;;;;;;;22.64;68.83;97938.38;5057923;28;20223;-73
2021/07/27 09:05:18;;;;;;;5.97;4.93;;;;;;;22.87;67.65;97940.13;5058537;28;20226;-72
2021/07/27 09:07:46;;;;;;;5.43;4.97;;;;;;;22.63;68.17;97937.56;5056081;28;20191;-71
2021/07/27 09:10:16;;;;;;;5.43;4.93;;;;;;;22.65;68.62;97945.44;5060912;28;20214;-71
2021/07/27 09:12:58;;;;;;;6.00;5.50;;;;;;;22.59;68.63;97938.31;5052404;28;20587;-71
2021/07/27 09:15:28;;;;;;;4.93;4.63;;;;;;;22.72;68.34;97939.84;5060075;28;20582;-72
2021/07/27 09:17:57;;;;;;;5.17;4.83;;;;;;;22.58;68.59;97939.38;5058649;28;20210;-71
2021/07/27 09:20:33;;;;;;;5.40;4.97;;;;;;;22.19;67.61;97937.28;5053804;28;20211;-71
2021/07/27 09:23:02;;;;;;;5.13;4.73;;;;;;;22.02;69.39;97937.22;5056293;28;20219;-70
2021/07/27 09:25:32;;;;;;;4.97;4.63;;;;;;;22.11;69.03;97943.88;5052085;28;20208;-72
2021/07/27 09:28:07;;;;;;;4.97;4.53;;;;;;;22.23;67.81;97941.97;5057988;28;20206;-71
2021/07/27 09:30:36;;;;;;;4.63;4.23;;;;;;;22.61;65.82;97936.97;5063585;28;20209;-70
2021/07/27 09:33:05;;;;;;;4.90;4.50;;;;;;;23.03;65.24;97946.59;5053279;28;20210;-71
2021/07/27 09:35:33;;;;;;;5.10;4.80;;;;;;;23.16;63.57;97944.59;5056938;28;20269;-72
2021/07/27 09:38:09;;;;;;;4.10;3.87;;;;;;;23.32;63.92;97942.97;5059080;28;20206;-71
2021/07/27 09:40:48;;;;;;;4.43;4.13;;;;;;;23.79;60.94;97931.69;5059782;28;20208;-72
2021/07/27 09:43:35;;;;;;;4.83;4.43;;;;;;;24.08;60.46;97931.53;5063577;28;20223;-72
2021/07/27 09:46:02;;;;;;;5.23;4.73;;;;;;;24.16;59.06;97937.56;5057023;28;20580;-72
2021/07/27 09:48:33;;;;;;;5.20;4.90;;;;;;;23.99;60.68;97931.13;5057579;28;20211;-72
2021/07/27 09:51:01;;;;;;;5.70;5.13;;;;;;;23.77;60.76;97933.03;5063241;28;20611;-71
2021/07/27 09:53:29;;;;;;;5.50;5.10;;;;;;;23.44;62.60;97935.56;5056022;28;20214;-71
2021/07/27 09:55:57;;;;;;;5.30;4.87;;;;;;;24.22;61.60;97923.00;5060525;28;20823;-71
2021/07/27 09:58:27;;;;;;;4.90;4.40;;;;;;;24.63;58.54;97928.00;5058954;28;20487;-72
2021/07/27 10:01:00;;;;;;;5.30;4.80;;;;;;;24.73;57.78;97927.28;5053874;28;20211;-71
2021/07/27 10:03:31;;;;;;;5.10;4.70;;;;;;;24.30;57.87;97919.84;5060111;28;20359;-73
2021/07/27 10:06:01;;;;;;;4.70;4.30;;;;;;;24.37;56.98;97916.91;5059592;28;20227;-71
2021/07/27 10:08:31;;;;;;;5.00;4.43;;;;;;;24.19;58.93;97912.69;5056557;28;20215;-72
2021/07/27 10:11:07;;;;;;;5.30;4.50;;;;;;;24.60;55.00;97914.97;5061119;28;20245;-71
2021/07/27 10:13:36;;;;;;;4.43;4.00;;;;;;;24.77;55.10;97923.00;5054359;28;20207;-71
2021/07/27 10:16:05;;;;;;;4.63;4.20;;;;;;;24.71;54.36;97920.22;5059825;28;20231;-71
2021/07/27 10:18:35;;;;;;;4.50;4.20;;;;;;;24.72;53.78;97926.44;5054014;28;20241;-71
2021/07/27 10:21:24;;;;;;;5.40;4.70;;;;;;;25.33;51.88;97922.56;5059086;28;20666;-72
2021/07/27 10:23:53;;;;;;;4.40;4.10;;;;;;;25.41;53.25;97926.69;5060380;28;20214;-72
2021/07/27 10:26:28;;;;;;;5.07;4.67;;;;;;;25.37;50.10;97920.97;5057968;28;20274;-71
2021/07/27 10:28:57;;;;;;;4.60;4.30;;;;;;;25.67;51.97;97914.09;5057776;28;20813;-71
2021/07/27 10:31:33;;;;;;;4.57;4.27;;;;;;;25.61;50.56;97920.59;5060888;28;20694;-71
2021/07/27 10:34:03;;;;;;;4.63;4.27;;;;;;;25.82;49.44;97918.78;5062656;28;20244;-71
2021/07/27 10:36:33;;;;;;;4.13;3.90;;;;;;;25.66;51.49;97907.03;5053335;28;20226;-71
2021/07/27 10:39:12;;;;;;;4.37;4.07;;;;;;;25.32;51.03;97914.69;5053300;28;20275;-70
2021/07/27 10:41:42;;;;;;;4.97;4.47;;;;;;;25.68;50.64;97910.31;5054756;28;20901;-72
2021/07/27 10:44:12;;;;;;;4.57;4.17;;;;;;;26.00;50.15;97912.03;5061964;28;20229;-71
2021/07/27 10:46:43;;;;;;;4.33;4.03;;;;;;;26.49;48.24;97906.44;5062677;28;20223;-71
2021/07/27 10:49:21;;;;;;;5.27;4.80;;;;;;;26.30;46.57;97913.19;5059242;28;20209;-71
2021/07/27 10:51:50;;;;;;;4.23;3.93;;;;;;;25.59;46.36;97909.19;5055434;28;20207;-72
2021/07/27 10:54:25;;;;;;;4.67;4.27;;;;;;;26.25;45.44;97906.97;5063803;28;20211;-72
2021/07/27 10:57:01;;;;;;;4.47;4.17;;;;;;;26.70;44.71;97907.25;5055462;28;20254;-71
2021/07/27 10:59:32;;;;;;;4.70;4.30;;;;;;;27.06;43.43;97904.53;5054601;28;20258;-71
2021/07/27 11:02:02;;;;;;;4.10;3.70;;;;;;;28.01;43.25;97903.97;5057891;28;20208;-71
2021/07/27 11:04:31;;;;;;;4.50;4.20;;;;;;;27.64;43.63;97905.22;5057957;28;20211;-71
2021/07/27 11:07:12;;;;;;;3.67;3.47;;;;;;;27.84;43.33;97894.25;5056277;28;20227;-71
2021/07/27 11:09:50;;;;;;;4.57;4.17;;;;;;;28.29;42.88;97886.13;5057714;28;20214;-72
2021/07/27 11:12:28;;;;;;;3.57;3.37;;;;;;;28.87;39.73;97889.25;5058633;28;20207;-71
2021/07/27 11:15:10;;;;;;;4.57;4.17;;;;;;;29.12;39.57;97877.28;5053280;28;20662;-71
2021/07/27 11:17:44;;;;;;;4.13;3.67;;;;;;;29.32;40.94;97880.88;5055793;28;20230;-72
2021/07/27 11:20:13;;;;;;;4.47;4.07;;;;;;;28.27;38.52;97884.78;5063784;28;20215;-71
2021/07/27 11:22:43;;;;;;;4.27;3.97;;;;;;;27.84;40.80;97880.66;5056111;28;20226;-72
2021/07/27 11:25:12;;;;;;;4.00;3.70;;;;;;;27.77;41.85;97880.16;5059942;28;20578;-72
2021/07/27 11:27:40;;;;;;;4.50;4.13;;;;;;;27.52;43.79;97886.53;5061229;28;20233;-72
2021/07/27 11:30:09;;;;;;;4.37;3.97;;;;;;;27.53;43.55;97872.63;5058654;28;20203;-72
2021/07/27 11:32:43;;;;;;;4.27;3.87;;;;;;;27.69;43.40;97862.47;5059054;28;20797;-71
2021/07/27 11:35:12;;;;;;;4.67;4.27;;;;;;;27.96;43.28;97866.72;5058998;28;20282;-72
2021/07/27 11:37:41;;;;;;;3.60;3.40;;;;;;;28.21;42.53;97867.66;5056955;28;20227;-71
2021/07/27 11:40:22;;;;;;;3.90;3.70;;;;;;;28.93;41.49;97866.28;5062224;28;20213;-72
2021/07/27 11:43:00;;;;;;;4.10;3.80;;;;;;;28.52;39.36;97861.97;5056785;28;20218;-71
2021/07/27 11:45:28;;;;;;;4.23;3.93;;;;;;;29.16;39.20;97872.03;5059335;28;20199;-72
2021/07/27 11:47:58;;;;;;;3.70;3.50;;;;;;;28.94;36.52;97853.44;5060239;28;20207;-72
2021/07/27 11:50:27;;;;;;;4.30;4.00;;;;;;;28.00;39.43;97856.88;5058391;28;20199;-72
2021/07/27 11:52:59;;;;;;;3.80;3.57;;;;;;;27.45;40.45;97865.81;5059090;28;20214;-72
2021/07/27 11:55:31;;;;;;;3.73;3.43;;;;;;;27.79;38.51;97864.34;5053008;28;20196;-72
2021/07/27 11:57:59;;;;;;;4.23;3.93;;;;;;;27.48;40.59;97867.16;5056753;28;20222;-71